Alta, Iowa
Current Conditions -  °F | °C
As of 1:55 PM on Thursday 23 Oct 2014 (Local Time) from KSLB Reporting Station
Clear Clear  
Wind Chill: 66°   Ceiling: Unl
Heat Index: 66°   Visibility: 10mi
Dew Point: 48°   Wind: 6mph
Humidity: 52%   Direction: NA
Pressure: 30.03"   Gusts: NA
Location:  42.67°N, 95.29°W
Report Text: KSLB 231855Z AUTO VRB05KT 10SM CLR 19/09 A3003 RMK AO2
Loading
Personal Weather Stations






























Interactive Weather Map New forecast layout! Learn more

10-Day Weather Forecast

Advertisements
Track Severe Weather on mobile